Time;durP1;ratioP1;P1;durP2;ratioP2;P2;SDS_P1;SDS_P2;PMS_P1;PMS_P2;Temp;Humidity;BMP_temperature;BMP_pressure;BME280_temperature;BME280_humidity;BME280_pressure;Samples;Min_cycle;Max_cycle;Signal;HPM_P1;HPM_P2
2023/01/22 00:04:20;;;;;;;5.35;2.67;;;;;;;;;;10435340;28;20219;-78
2023/01/22 00:09:21;;;;;;;4.60;2.70;;;;;;;;;;10431992;28;20306;-78
2023/01/22 00:14:22;;;;;;;2.22;2.03;;;;;;;;;;10416684;28;20301;-75
2023/01/22 00:19:23;;;;;;;3.45;2.42;;;;;;;;;;10429513;28;20218;-75
2023/01/22 00:24:25;;;;;;;2.35;1.85;;;;;;;;;;10418895;28;20307;-74
2023/01/22 00:29:26;;;;;;;5.47;2.33;;;;;;;;;;10422056;28;20228;-75
2023/01/22 00:34:27;;;;;;;1.63;1.52;;;;;;;;;;10443708;28;20221;-75
2023/01/22 00:39:28;;;;;;;1.60;1.50;;;;;;;;;;10418915;28;20464;-73
2023/01/22 00:44:29;;;;;;;1.70;1.60;;;;;;;;;;10417545;28;20595;-75
2023/01/22 00:49:30;;;;;;;3.97;2.03;;;;;;;;;;10438794;28;20246;-74
2023/01/22 00:54:32;;;;;;;2.13;1.58;;;;;;;;;;10424260;28;20707;-76
2023/01/22 00:59:33;;;;;;;2.35;1.67;;;;;;;;;;10435712;28;20210;-74
2023/01/22 01:04:34;;;;;;;2.05;1.58;;;;;;;;;;10432813;28;20217;-75
2023/01/22 01:09:35;;;;;;;2.05;1.25;;;;;;;;;;10439038;28;20218;-72
2023/01/22 01:14:36;;;;;;;1.63;1.50;;;;;;;;;;10435260;28;21011;-74
2023/01/22 01:19:37;;;;;;;3.80;1.67;;;;;;;;;;10448797;28;20221;-76
2023/01/22 01:24:39;;;;;;;1.98;1.50;;;;;;;;;;10436383;28;20333;-74
2023/01/22 01:29:40;;;;;;;3.03;1.45;;;;;;;;;;10438821;28;20218;-74
2023/01/22 01:34:42;;;;;;;2.80;1.27;;;;;;;;;;10453517;28;20225;-75
2023/01/22 01:39:43;;;;;;;2.13;1.33;;;;;;;;;;10420603;28;20301;-73
2023/01/22 01:44:45;;;;;;;1.98;1.42;;;;;;;;;;10413511;28;20214;-74
2023/01/22 01:49:48;;;;;;;2.55;1.52;;;;;;;;;;10440460;28;20211;-75
2023/01/22 01:54:51;;;;;;;1.40;1.30;;;;;;;;;;10435110;28;20222;-72
2023/01/22 01:59:53;;;;;;;1.17;1.15;;;;;;;;;;10441972;28;20222;-75
2023/01/22 02:04:54;;;;;;;1.45;1.35;;;;;;;;;;10455038;28;20264;-76
2023/01/22 02:09:56;;;;;;;1.45;1.35;;;;;;;;;;10445222;28;20229;-74
2023/01/22 02:14:57;;;;;;;1.20;1.15;;;;;;;;;;10452317;28;20223;-77
2023/01/22 02:20:04;;;;;;;0.93;0.93;;;;;;;;;;10474071;28;20263;-77
2023/01/22 02:25:06;;;;;;;1.27;1.20;;;;;;;;;;10449981;28;20257;-77
2023/01/22 02:30:08;;;;;;;1.95;0.93;;;;;;;;;;10449760;28;20206;-79
2023/01/22 02:35:09;;;;;;;1.23;1.23;;;;;;;;;;10416190;28;20203;-76
2023/01/22 02:40:11;;;;;;;1.70;1.60;;;;;;;;;;10436859;28;20202;-75
2023/01/22 02:45:13;;;;;;;1.27;1.27;;;;;;;;;;10437125;28;20171;-76
2023/01/22 02:50:14;;;;;;;2.15;1.20;;;;;;;;;;10421130;28;20221;-75
2023/01/22 02:55:15;;;;;;;0.88;0.88;;;;;;;;;;10435397;28;21854;-77
2023/01/22 03:00:16;;;;;;;1.90;1.50;;;;;;;;;;10427788;28;20818;-77
2023/01/22 03:05:18;;;;;;;2.40;1.38;;;;;;;;;;10397997;28;20708;-75
2023/01/22 03:10:20;;;;;;;2.92;1.20;;;;;;;;;;10432346;28;20287;-80
2023/01/22 03:26:02;;;;;;;0.75;0.75;;;;;;;;;;10434089;28;20210;-79
2023/01/22 03:31:03;;;;;;;0.98;0.98;;;;;;;;;;10438336;28;20229;-75
2023/01/22 03:36:07;;;;;;;0.80;0.80;;;;;;;;;;10416680;28;20825;-78
2023/01/22 03:41:12;;;;;;;0.85;0.85;;;;;;;;;;10436332;28;20215;-78
2023/01/22 03:46:17;;;;;;;1.00;1.00;;;;;;;;;;10438924;28;20223;-78
2023/01/22 03:51:21;;;;;;;0.57;0.57;;;;;;;;;;10414328;28;20218;-76
2023/01/22 03:56:23;;;;;;;1.08;0.82;;;;;;;;;;10417780;28;20471;-79
2023/01/22 04:01:27;;;;;;;2.28;0.75;;;;;;;;;;10414780;28;20276;-79
2023/01/22 04:06:30;;;;;;;1.95;0.75;;;;;;;;;;10444742;28;20222;-78
2023/01/22 04:11:32;;;;;;;0.60;0.60;;;;;;;;;;10442811;28;20245;-80
2023/01/22 04:16:33;;;;;;;0.70;0.70;;;;;;;;;;10446269;28;20218;-76
2023/01/22 04:22:03;;;;;;;1.27;0.70;;;;;;;;;;10419388;28;20377;-78
2023/01/22 04:27:06;;;;;;;0.98;0.50;;;;;;;;;;10437869;28;20242;-83
2023/01/22 04:32:08;;;;;;;0.47;0.47;;;;;;;;;;10452070;28;20230;-77
2023/01/22 04:37:30;;;;;;;0.45;0.45;;;;;;;;;;10444643;28;20211;-79
2023/01/22 04:42:32;;;;;;;0.60;0.60;;;;;;;;;;10410744;28;20218;-78
2023/01/22 04:47:34;;;;;;;1.13;0.65;;;;;;;;;;10439560;28;20226;-78
2023/01/22 04:52:35;;;;;;;0.90;0.90;;;;;;;;;;10412081;28;20222;-81
2023/01/22 04:57:36;;;;;;;0.60;0.52;;;;;;;;;;10448350;28;20218;-82
2023/01/22 05:02:38;;;;;;;1.50;0.80;;;;;;;;;;10429866;28;20214;-77
2023/01/22 05:07:39;;;;;;;0.70;0.70;;;;;;;;;;10432315;28;20257;-78
2023/01/22 05:12:40;;;;;;;0.95;0.90;;;;;;;;;;10412802;28;20222;-79
2023/01/22 05:17:42;;;;;;;0.77;0.77;;;;;;;;;;10433931;28;20218;-77
2023/01/22 05:22:43;;;;;;;0.65;0.65;;;;;;;;;;10447441;28;20246;-79
2023/01/22 05:27:45;;;;;;;0.98;0.98;;;;;;;;;;10432601;28;20215;-76
2023/01/22 05:32:55;;;;;;;0.75;0.75;;;;;;;;;;10415046;28;20260;-78
2023/01/22 05:37:57;;;;;;;0.75;0.75;;;;;;;;;;10439986;28;20694;-76
2023/01/22 05:42:58;;;;;;;1.25;1.15;;;;;;;;;;10429621;28;20199;-78
2023/01/22 05:47:59;;;;;;;0.95;0.90;;;;;;;;;;10433720;28;20269;-78
2023/01/22 05:53:21;;;;;;;1.08;1.08;;;;;;;;;;10443358;28;20222;-81
2023/01/22 05:58:22;;;;;;;0.82;0.80;;;;;;;;;;10428344;28;20210;-77
2023/01/22 06:03:24;;;;;;;2.85;0.82;;;;;;;;;;10445129;28;20218;-77
2023/01/22 06:08:27;;;;;;;1.55;1.45;;;;;;;;;;10425176;28;20231;-80
2023/01/22 06:13:28;;;;;;;0.80;0.80;;;;;;;;;;10429535;28;20272;-78
2023/01/22 06:18:34;;;;;;;0.90;0.90;;;;;;;;;;10412045;28;21751;-79
2023/01/22 06:23:36;;;;;;;1.02;1.02;;;;;;;;;;10429218;28;20289;-78
2023/01/22 06:28:37;;;;;;;0.90;0.90;;;;;;;;;;10406411;28;20218;-80
2023/01/22 06:33:40;;;;;;;0.95;0.95;;;;;;;;;;10439040;28;20222;-80
2023/01/22 06:38:41;;;;;;;2.75;1.40;;;;;;;;;;10420280;28;20218;-78
2023/01/22 06:43:44;;;;;;;1.38;1.23;;;;;;;;;;10412466;28;20223;-81
2023/01/22 06:48:46;;;;;;;1.60;1.50;;;;;;;;;;10433888;28;20783;-80
2023/01/22 06:53:47;;;;;;;1.40;1.40;;;;;;;;;;10446372;28;20249;-81
2023/01/22 06:58:48;;;;;;;3.15;1.63;;;;;;;;;;10433924;28;20306;-77
2023/01/22 07:03:49;;;;;;;2.42;1.80;;;;;;;;;;10434623;28;20245;-82
2023/01/22 07:08:51;;;;;;;1.67;1.45;;;;;;;;;;10429463;28;20215;-78
2023/01/22 07:13:52;;;;;;;1.33;1.33;;;;;;;;;;10424739;28;20509;-80
2023/01/22 07:18:53;;;;;;;2.60;2.10;;;;;;;;;;10426025;28;20207;-77
2023/01/22 07:23:54;;;;;;;1.75;1.65;;;;;;;;;;10415374;28;20771;-78
2023/01/22 07:28:55;;;;;;;2.35;2.15;;;;;;;;;;10431548;28;20211;-80
2023/01/22 07:33:56;;;;;;;3.25;2.28;;;;;;;;;;10421073;28;20222;-79
2023/01/22 07:38:57;;;;;;;2.20;2.10;;;;;;;;;;10437102;28;20214;-79
2023/01/22 07:43:59;;;;;;;2.13;1.98;;;;;;;;;;10420768;28;20265;-78
2023/01/22 07:49:00;;;;;;;2.08;1.98;;;;;;;;;;10441283;28;20214;-78
2023/01/22 07:54:02;;;;;;;2.28;2.08;;;;;;;;;;10435202;28;20214;-81
2023/01/22 07:59:03;;;;;;;4.85;2.80;;;;;;;;;;10440581;28;20218;-77
2023/01/22 08:04:04;;;;;;;2.75;2.55;;;;;;;;;;10445515;28;20250;-77
2023/01/22 08:09:06;;;;;;;1.92;1.83;;;;;;;;;;10439644;28;20222;-77
2023/01/22 08:14:07;;;;;;;2.42;1.83;;;;;;;;;;10432170;28;20218;-78
2023/01/22 08:19:09;;;;;;;3.25;2.33;;;;;;;;;;10439469;28;20219;-76
2023/01/22 08:24:11;;;;;;;2.65;2.45;;;;;;;;;;10422801;28;20249;-77
2023/01/22 08:29:13;;;;;;;3.55;2.50;;;;;;;;;;10429545;28;20272;-81
2023/01/22 08:34:14;;;;;;;3.40;2.80;;;;;;;;;;10411050;28;20305;-80
2023/01/22 08:39:15;;;;;;;5.78;2.55;;;;;;;;;;10424752;28;20736;-79
2023/01/22 08:44:16;;;;;;;2.92;2.70;;;;;;;;;;10413331;28;20282;-78
2023/01/22 08:49:20;;;;;;;3.47;2.90;;;;;;;;;;10433141;28;20221;-81
2023/01/22 08:54:21;;;;;;;2.60;2.40;;;;;;;;;;10432448;28;20850;-78
2023/01/22 08:59:22;;;;;;;2.33;2.13;;;;;;;;;;10437366;28;20298;-79
2023/01/22 09:04:23;;;;;;;3.65;3.35;;;;;;;;;;10432864;28;20218;-79
2023/01/22 09:09:24;;;;;;;4.68;2.85;;;;;;;;;;10425324;28;20238;-79
2023/01/22 09:14:25;;;;;;;3.08;2.83;;;;;;;;;;10442547;28;20814;-77
2023/01/22 09:19:26;;;;;;;3.40;2.75;;;;;;;;;;10434133;28;20696;-79
2023/01/22 09:24:27;;;;;;;4.18;2.85;;;;;;;;;;10433143;28;20673;-80
2023/01/22 09:29:28;;;;;;;3.35;3.03;;;;;;;;;;10432882;28;20203;-77
2023/01/22 09:34:29;;;;;;;3.70;3.22;;;;;;;;;;10430523;28;20226;-81
2023/01/22 09:39:30;;;;;;;3.13;2.88;;;;;;;;;;10418481;28;20244;-76
2023/01/22 09:44:37;;;;;;;4.88;3.90;;;;;;;;;;10400050;28;20207;-81
2023/01/22 09:49:44;;;;;;;4.68;3.80;;;;;;;;;;10416082;28;20398;-79
2023/01/22 09:54:45;;;;;;;4.90;3.75;;;;;;;;;;10408341;28;20254;-79
2023/01/22 09:59:51;;;;;;;5.57;3.70;;;;;;;;;;10418727;28;20827;-81
2023/01/22 10:04:56;;;;;;;4.35;3.38;;;;;;;;;;10423443;28;20214;-81
2023/01/22 10:10:00;;;;;;;3.85;3.50;;;;;;;;;;10425374;28;20226;-78
2023/01/22 10:15:01;;;;;;;3.58;3.20;;;;;;;;;;10427569;28;20218;-81
2023/01/22 10:20:04;;;;;;;3.97;3.58;;;;;;;;;;10425742;28;20236;-80
2023/01/22 10:25:06;;;;;;;6.45;3.35;;;;;;;;;;10425879;28;20186;-81
2023/01/22 10:30:15;;;;;;;9.40;4.15;;;;;;;;;;10418854;28;20198;-80
2023/01/22 10:35:18;;;;;;;4.05;3.38;;;;;;;;;;10411431;28;20568;-82
2023/01/22 10:40:39;;;;;;;4.53;4.00;;;;;;;;;;10398897;28;20194;-80
2023/01/22 10:45:55;;;;;;;5.22;4.22;;;;;;;;;;10423941;28;21463;-81
2023/01/22 10:51:13;;;;;;;4.22;3.83;;;;;;;;;;10428275;28;20799;-79
2023/01/22 10:56:24;;;;;;;3.55;3.30;;;;;;;;;;10429308;28;20309;-78
2023/01/22 11:01:34;;;;;;;6.22;4.13;;;;;;;;;;10431966;28;20292;-81
2023/01/22 11:06:43;;;;;;;7.30;4.15;;;;;;;;;;10413500;28;20653;-80
2023/01/22 11:11:47;;;;;;;4.60;3.53;;;;;;;;;;10428720;28;20278;-80
2023/01/22 11:16:50;;;;;;;4.75;3.42;;;;;;;;;;10418226;28;20214;-80
2023/01/22 11:21:54;;;;;;;6.70;4.03;;;;;;;;;;10394725;28;20214;-79
2023/01/22 11:27:21;;;;;;;3.75;3.40;;;;;;;;;;10398419;28;20221;-79
2023/01/22 11:32:22;;;;;;;5.68;4.68;;;;;;;;;;10419503;28;20203;-78
2023/01/22 11:37:48;;;;;;;7.03;3.47;;;;;;;;;;10405107;28;20214;-80
2023/01/22 11:43:02;;;;;;;4.55;3.22;;;;;;;;;;10423423;28;20304;-81
2023/01/22 11:48:15;;;;;;;7.20;4.93;;;;;;;;;;10419608;28;20301;-80
2023/01/22 11:53:35;;;;;;;4.90;4.03;;;;;;;;;;10390704;28;20219;-80
2023/01/22 11:58:51;;;;;;;4.30;3.22;;;;;;;;;;10407569;28;20885;-79
2023/01/22 12:03:56;;;;;;;5.22;3.88;;;;;;;;;;10406785;28;20241;-80
2023/01/22 12:09:10;;;;;;;5.20;3.67;;;;;;;;;;10423792;28;20991;-79
2023/01/22 12:14:30;;;;;;;8.30;4.38;;;;;;;;;;10425070;28;20502;-79
2023/01/22 12:19:45;;;;;;;4.00;3.65;;;;;;;;;;10429229;28;20217;-79
2023/01/22 12:24:54;;;;;;;6.85;3.63;;;;;;;;;;10423923;28;20222;-80
2023/01/22 12:30:11;;;;;;;4.85;3.40;;;;;;;;;;10431060;28;20222;-80
2023/01/22 12:35:16;;;;;;;5.28;4.20;;;;;;;;;;10431882;28;20219;-81
2023/01/22 12:40:17;;;;;;;4.57;4.05;;;;;;;;;;10433817;28;20199;-79
2023/01/22 12:45:32;;;;;;;10.75;4.97;;;;;;;;;;10469291;28;20191;-80
2023/01/22 12:50:33;;;;;;;5.93;5.07;;;;;;;;;;10472350;28;20222;-81
2023/01/22 12:55:43;;;;;;;8.48;5.63;;;;;;;;;;10462349;28;20215;-80
2023/01/22 13:00:45;;;;;;;9.32;4.43;;;;;;;;;;10406948;28;20221;-83
2023/01/22 13:05:46;;;;;;;6.90;4.72;;;;;;;;;;10418523;28;20215;-81
2023/01/22 13:10:52;;;;;;;6.10;3.88;;;;;;;;;;10423399;28;20214;-81
2023/01/22 13:15:55;;;;;;;5.53;4.30;;;;;;;;;;10432957;28;20238;-80
2023/01/22 13:21:02;;;;;;;6.53;3.55;;;;;;;;;;10429691;28;20272;-82
2023/01/22 13:26:03;;;;;;;8.95;4.07;;;;;;;;;;10434907;28;20218;-80
2023/01/22 13:31:12;;;;;;;5.32;3.58;;;;;;;;;;10441904;28;20977;-81
2023/01/22 13:36:13;;;;;;;5.50;4.18;;;;;;;;;;10432270;28;20857;-81
2023/01/22 13:41:21;;;;;;;3.70;3.40;;;;;;;;;;10417378;28;20500;-82
2023/01/22 13:46:22;;;;;;;7.05;4.75;;;;;;;;;;10419983;28;20203;-82
2023/01/22 13:51:23;;;;;;;6.60;4.35;;;;;;;;;;10418294;28;20307;-81
2023/01/22 13:56:26;;;;;;;8.43;4.45;;;;;;;;;;10453454;28;20275;-81
2023/01/22 14:01:31;;;;;;;4.28;3.90;;;;;;;;;;10443500;28;20231;-81
2023/01/22 14:06:43;;;;;;;5.55;4.78;;;;;;;;;;10433974;28;20219;-81
2023/01/22 14:11:44;;;;;;;7.10;4.28;;;;;;;;;;10425755;28;20235;-81
2023/01/22 14:16:46;;;;;;;6.45;4.70;;;;;;;;;;10434983;28;20269;-80
2023/01/22 14:21:48;;;;;;;7.68;4.70;;;;;;;;;;10434773;28;20218;-82
2023/01/22 14:26:49;;;;;;;7.60;4.88;;;;;;;;;;10436682;28;20301;-81
2023/01/22 14:31:50;;;;;;;6.55;4.70;;;;;;;;;;10428352;28;20218;-81
2023/01/22 14:36:52;;;;;;;6.18;4.25;;;;;;;;;;10416403;28;20290;-80
2023/01/22 14:41:54;;;;;;;7.18;5.20;;;;;;;;;;10403266;28;20215;-81
2023/01/22 14:46:55;;;;;;;5.90;4.28;;;;;;;;;;10430156;28;20569;-81
2023/01/22 14:51:56;;;;;;;7.82;4.70;;;;;;;;;;10420075;28;20288;-82
2023/01/22 14:57:01;;;;;;;6.93;4.57;;;;;;;;;;10416498;28;21143;-82
2023/01/22 15:02:02;;;;;;;8.63;4.88;;;;;;;;;;10400240;28;20207;-82
2023/01/22 15:07:03;;;;;;;7.72;4.90;;;;;;;;;;10431529;28;20226;-81
2023/01/22 15:12:05;;;;;;;5.25;4.63;;;;;;;;;;10435003;28;20215;-81
2023/01/22 15:17:06;;;;;;;8.82;4.95;;;;;;;;;;10430479;28;20222;-83
2023/01/22 15:22:08;;;;;;;4.28;3.78;;;;;;;;;;10418142;28;20233;-81
2023/01/22 15:27:10;;;;;;;7.15;4.78;;;;;;;;;;10415662;28;20875;-81
2023/01/22 15:32:12;;;;;;;5.65;3.78;;;;;;;;;;10430414;28;20211;-81
2023/01/22 15:37:13;;;;;;;7.85;4.15;;;;;;;;;;10413987;28;20218;-82
2023/01/22 15:42:15;;;;;;;5.68;3.92;;;;;;;;;;10409816;28;20428;-81
2023/01/22 15:47:16;;;;;;;5.30;3.83;;;;;;;;;;10434432;28;20233;-81
2023/01/22 15:52:17;;;;;;;6.32;4.55;;;;;;;;;;10435489;28;20767;-81
2023/01/22 15:57:19;;;;;;;4.35;3.47;;;;;;;;;;10435366;28;20238;-81
2023/01/22 16:02:21;;;;;;;6.55;4.30;;;;;;;;;;10430397;28;20218;-80
2023/01/22 16:07:22;;;;;;;5.30;4.63;;;;;;;;;;10430404;28;20214;-81
2023/01/22 16:12:23;;;;;;;13.50;5.75;;;;;;;;;;10407670;28;20303;-78
2023/01/22 16:17:24;;;;;;;8.98;5.45;;;;;;;;;;10445544;28;20260;-81
2023/01/22 16:22:26;;;;;;;9.65;5.63;;;;;;;;;;10414388;28;20209;-81
2023/01/22 16:27:27;;;;;;;8.63;5.82;;;;;;;;;;10434328;28;20774;-81
2023/01/22 16:32:29;;;;;;;7.18;5.15;;;;;;;;;;10431558;28;20218;-80
2023/01/22 16:37:30;;;;;;;7.68;6.00;;;;;;;;;;10431667;28;20219;-82
2023/01/22 16:42:33;;;;;;;5.40;4.85;;;;;;;;;;10410716;28;20754;-79
2023/01/22 16:47:34;;;;;;;4.07;3.67;;;;;;;;;;10429864;28;20245;-80
2023/01/22 16:52:35;;;;;;;6.07;4.93;;;;;;;;;;10435335;28;20219;-81
2023/01/22 16:57:40;;;;;;;7.30;4.55;;;;;;;;;;10427750;28;20214;-82
2023/01/22 17:02:41;;;;;;;6.15;4.07;;;;;;;;;;10427536;28;20301;-81
2023/01/22 17:07:42;;;;;;;6.38;4.50;;;;;;;;;;10432763;28;20226;-81
2023/01/22 17:12:43;;;;;;;6.28;4.60;;;;;;;;;;10397826;28;20821;-79
2023/01/22 17:17:45;;;;;;;5.15;4.13;;;;;;;;;;10426925;28;20245;-80
2023/01/22 17:22:46;;;;;;;6.68;5.05;;;;;;;;;;10411374;28;20210;-80
2023/01/22 17:27:47;;;;;;;7.13;4.40;;;;;;;;;;10421568;28;20219;-80
2023/01/22 17:32:48;;;;;;;8.68;5.00;;;;;;;;;;10424828;28;20215;-80
2023/01/22 17:37:50;;;;;;;6.18;4.72;;;;;;;;;;10422735;28;20724;-82
2023/01/22 17:42:51;;;;;;;7.82;4.93;;;;;;;;;;10429978;28;20214;-81
2023/01/22 17:47:52;;;;;;;6.47;4.78;;;;;;;;;;10430439;28;20218;-81
2023/01/22 17:52:54;;;;;;;8.35;5.13;;;;;;;;;;10423882;28;20283;-82
2023/01/22 17:57:58;;;;;;;8.32;5.38;;;;;;;;;;10430467;28;20219;-81
2023/01/22 18:02:59;;;;;;;8.10;5.43;;;;;;;;;;10434296;28;20318;-80
2023/01/22 18:08:00;;;;;;;9.23;5.20;;;;;;;;;;10426585;28;20231;-80
2023/01/22 18:13:01;;;;;;;10.43;5.68;;;;;;;;;;10419334;28;20210;-81
2023/01/22 18:18:02;;;;;;;6.28;4.60;;;;;;;;;;10410514;28;20241;-82
2023/01/22 18:23:03;;;;;;;11.07;4.72;;;;;;;;;;10403351;28;20945;-83
2023/01/22 18:28:04;;;;;;;12.82;6.70;;;;;;;;;;10422895;28;20699;-82
2023/01/22 18:33:06;;;;;;;8.55;5.13;;;;;;;;;;10414437;28;20272;-82
2023/01/22 18:38:07;;;;;;;11.60;5.85;;;;;;;;;;10412616;28;20241;-83
2023/01/22 18:43:10;;;;;;;13.18;7.13;;;;;;;;;;10428309;28;20279;-83
2023/01/22 18:48:15;;;;;;;10.15;5.88;;;;;;;;;;10412478;28;20206;-81
2023/01/22 18:53:16;;;;;;;13.45;6.35;;;;;;;;;;10425554;28;20214;-81
2023/01/22 18:58:26;;;;;;;8.13;5.50;;;;;;;;;;10412781;28;20305;-82
2023/01/22 19:03:28;;;;;;;12.88;6.50;;;;;;;;;;10431083;28;20253;-83
2023/01/22 19:08:29;;;;;;;11.82;6.43;;;;;;;;;;10403943;28;20218;-82
2023/01/22 19:13:34;;;;;;;10.63;6.05;;;;;;;;;;10428492;28;20218;-82
2023/01/22 19:18:35;;;;;;;12.90;6.40;;;;;;;;;;10422732;28;20281;-83
2023/01/22 19:23:36;;;;;;;13.57;6.88;;;;;;;;;;10425036;28;20206;-83
2023/01/22 19:28:38;;;;;;;10.07;6.18;;;;;;;;;;10397923;28;20219;-82
2023/01/22 19:33:39;;;;;;;8.23;5.50;;;;;;;;;;10417219;28;20692;-81
2023/01/22 19:38:40;;;;;;;12.43;5.50;;;;;;;;;;10384472;28;20229;-81
2023/01/22 19:43:42;;;;;;;12.73;5.80;;;;;;;;;;10397731;28;20279;-81
2023/01/22 19:48:43;;;;;;;12.68;6.75;;;;;;;;;;10417214;28;20306;-81
2023/01/22 19:53:47;;;;;;;10.32;5.97;;;;;;;;;;10416098;28;20282;-82
2023/01/22 19:58:49;;;;;;;9.65;5.35;;;;;;;;;;10392678;28;20214;-82
2023/01/22 20:03:50;;;;;;;9.63;5.80;;;;;;;;;;10403622;28;20215;-82
2023/01/22 20:08:54;;;;;;;11.98;5.63;;;;;;;;;;10413909;28;20695;-81
2023/01/22 20:13:56;;;;;;;12.77;6.07;;;;;;;;;;10397818;28;20678;-80
2023/01/22 20:18:57;;;;;;;13.00;6.20;;;;;;;;;;10417483;28;20219;-80
2023/01/22 20:23:58;;;;;;;17.27;9.05;;;;;;;;;;10410622;28;20230;-81
2023/01/22 20:29:00;;;;;;;11.05;5.15;;;;;;;;;;10381611;28;20219;-82
2023/01/22 20:34:03;;;;;;;10.48;5.25;;;;;;;;;;10411607;28;20724;-82
2023/01/22 20:39:04;;;;;;;7.43;5.00;;;;;;;;;;10412041;28;20203;-83
2023/01/22 20:44:06;;;;;;;9.55;5.50;;;;;;;;;;10417446;28;20221;-81
2023/01/22 20:49:07;;;;;;;11.55;6.32;;;;;;;;;;10406460;28;20788;-82
2023/01/22 20:54:09;;;;;;;10.27;5.75;;;;;;;;;;10416779;28;21351;-82
2023/01/22 20:59:11;;;;;;;12.68;6.47;;;;;;;;;;10425904;28;20300;-81
2023/01/22 21:04:13;;;;;;;11.48;6.20;;;;;;;;;;10385238;28;20775;-81
2023/01/22 21:09:14;;;;;;;9.40;6.25;;;;;;;;;;10432448;28;20296;-79
2023/01/22 21:14:19;;;;;;;14.95;6.30;;;;;;;;;;10420808;28;20740;-82
2023/01/22 21:19:28;;;;;;;13.85;6.35;;;;;;;;;;10433323;28;20225;-81
2023/01/22 21:24:29;;;;;;;10.13;6.28;;;;;;;;;;10412702;28;20203;-82
2023/01/22 21:29:30;;;;;;;13.63;6.65;;;;;;;;;;10435517;28;20217;-81
2023/01/22 21:34:32;;;;;;;11.23;6.25;;;;;;;;;;10420323;28;20211;-81
2023/01/22 21:39:33;;;;;;;12.68;5.78;;;;;;;;;;10406183;28;20210;-82
2023/01/22 21:49:55;;;;;;;9.77;5.88;;;;;;;;;;10442927;28;20676;-81
2023/01/22 21:54:57;;;;;;;13.15;5.90;;;;;;;;;;10443890;28;20229;-79
2023/01/22 21:59:59;;;;;;;9.80;5.63;;;;;;;;;;10436124;28;20561;-80
2023/01/22 22:05:00;;;;;;;8.93;4.72;;;;;;;;;;10464020;28;20298;-83
2023/01/22 22:10:01;;;;;;;12.73;6.18;;;;;;;;;;10464594;28;20215;-81
2023/01/22 22:15:03;;;;;;;14.52;6.53;;;;;;;;;;10464411;28;20226;-80
2023/01/22 22:20:05;;;;;;;10.73;4.90;;;;;;;;;;10447387;28;20187;-81
2023/01/22 22:25:06;;;;;;;11.73;6.20;;;;;;;;;;10447043;28;20182;-82
2023/01/22 22:30:08;;;;;;;9.88;5.25;;;;;;;;;;10436511;28;20302;-81
2023/01/22 22:35:09;;;;;;;12.77;5.80;;;;;;;;;;10435973;28;20202;-79
2023/01/22 22:40:10;;;;;;;11.98;6.13;;;;;;;;;;10435033;28;20206;-81
2023/01/22 22:45:12;;;;;;;12.60;5.93;;;;;;;;;;10433000;28;20274;-81
2023/01/22 22:50:13;;;;;;;9.30;6.13;;;;;;;;;;10429275;28;20851;-81
2023/01/22 22:55:14;;;;;;;10.43;6.18;;;;;;;;;;10398905;28;20233;-81
2023/01/22 23:00:15;;;;;;;9.55;5.45;;;;;;;;;;10434111;28;20248;-81
2023/01/22 23:05:17;;;;;;;10.13;5.13;;;;;;;;;;10437463;28;20862;-82
2023/01/22 23:10:30;;;;;;;10.48;5.43;;;;;;;;;;10435103;28;20222;-81
2023/01/22 23:15:31;;;;;;;10.15;5.00;;;;;;;;;;10424444;28;20846;-81
2023/01/22 23:20:33;;;;;;;16.48;6.53;;;;;;;;;;10431346;28;20288;-81
2023/01/22 23:25:35;;;;;;;12.02;6.10;;;;;;;;;;10435855;28;20207;-81
2023/01/22 23:30:36;;;;;;;9.77;6.13;;;;;;;;;;10402449;28;20236;-80
2023/01/22 23:35:37;;;;;;;9.40;6.03;;;;;;;;;;10433555;28;20218;-81
2023/01/22 23:40:38;;;;;;;11.35;5.70;;;;;;;;;;10432528;28;20257;-81
2023/01/22 23:45:39;;;;;;;15.07;6.07;;;;;;;;;;10414084;28;20214;-80
2023/01/22 23:50:44;;;;;;;10.68;5.45;;;;;;;;;;10427343;28;20279;-80
2023/01/22 23:55:45;;;;;;;13.35;6.53;;;;;;;;;;10411889;28;20673;-84
